首页
METAR-TAF:

METAR-TAF

机场 :

贾特拉帕蒂·希瓦吉国际机场

孟买, 印度

纬度: 19-07N, 经度: 072-51E, 海拔: 8米

当前天气观测

该预报发布于35分钟前的19:00 UTC
风速6节,风向西转西北
温度 29°C
湿度 79%
气压 1008 hPa
能見度: 4000
少量云层高于2000英尺

METAR: VABB 231900Z 30006KT 4000 HZ FEW020 29/25 Q1008 BECMG 3000 HZ

时间: 01:05 (19:35 UTC)

预报

该预报发布于2小时和35分钟前的17:00 UTC
预报有效从23日的 18点(UTC)到 24日的 24点(UTC)
风速7节,风向西北
能見度: 4000
少量云层高于2000英尺
散云层高于2500英尺
成为
从 23日的 23点(UTC)到 24日的 01点(UTC)
风速3节,风向多变
能見度: 3000
成为
从 24日的 03点(UTC)到 24日的 05点(UTC)
风速5节,风向西
能見度: 4000
霾, 烟
成为
从 24日的 07点(UTC)到 24日的 09点(UTC)
风速10节,风向西转西北
能見度: 5000
少量云层高于2000英尺
成为
从 24日的 15点(UTC)到 24日的 17点(UTC)
能見度: 4000
散云层高于2000英尺
成为
从 24日的 21点(UTC)到 24日的 23点(UTC)
风速5节,风向北转西北
能見度: 3000
少量云层高于2000英尺
散云层高于2500英尺

TAF: VABB 231700Z 2318/2424 32007KT 4000 HZ FEW020 SCT025 BECMG 2323/2401 VRB03KT 3000 HZ BECMG 2403/2405 28005KT 4000 HZ FU BECMG 2407/2409 29010KT 5000 HZ FEW020 BECMG 2415/2417 4000 HZ SCT020 BECMG 2421/2423 33005KT 3000 HZ FEW020 SCT025

超过4000个机场的气象观测和天气预报(METAR&TAF报告)。

可查询的气象台以黄色和红色小点在地图上表示。

将鼠标移到小点上方,可查看气象台名称。

然后点击查看天气观测和预报。

如需切换地图:点击带黑十字的绿色按钮放大地图;点击带横线的绿色按钮缩小地图;或者点击绿色箭头查看邻近地区的地图。


METAR-TAF: